DNJO

Yakubu Gowon Airport

Airport
ICAO code
DNJO
IATA Code
JOS
Summary
ICAO Region
AFI
ICAO Territory
Location

Heipang, Plateau State

Serving
Jos
Elevation
4232 ft
Coordinates
9° 38' 17" N , 8° 52' 5" E
KCC
Metar
Observation
DNJO 061700Z 11006KT 9999 FEW011 22/18 Q1016
Station
Jos
Date/Time
2022-10-06 17:00:00
Wind direction
110°
Wind speed
06 kts
Lowest cloud amount
few clouds
Temperature
22°C
Dew point
18°C
Humidity
78%
QNH
1016 hPa
Weather condition
n/a

Yakubu Gowon Airport, also known as Jos Airport, is an airport serving Jos, the capital of the Plateau State of Nigeria.

Climatology

Tropical savanna climate (Köppen climate classification Aw

Runways

Designator Length Width Surface Rops
10/28 3001 45 ASP No/No

Airport map

Aerial View

Airport accidents

SKYbrary Partners:

Safety knowledge contributed by: